sensor_id;sensor_type;location;lat;lon;timestamp;pressure;altitude;pressure_sealevel;temperature;humidity
73429;BME280;61643;49.564;17.412;2024-02-26T00:01:43;97005.22;;;6.67;100.00
73429;BME280;61643;49.564;17.412;2024-02-26T00:04:10;97007.38;;;6.70;100.00
73429;BME280;61643;49.564;17.412;2024-02-26T00:06:37;97017.81;;;6.71;100.00
73429;BME280;61643;49.564;17.412;2024-02-26T00:09:04;97018.06;;;6.65;100.00
73429;BME280;61643;49.564;17.412;2024-02-26T00:11:32;97007.38;;;6.65;100.00
73429;BME280;61643;49.564;17.412;2024-02-26T00:13:58;97014.28;;;6.66;100.00
73429;BME280;61643;49.564;17.412;2024-02-26T00:16:24;97014.00;;;6.62;100.00
73429;BME280;61643;49.564;17.412;2024-02-26T00:18:50;97010.81;;;6.60;100.00
73429;BME280;61643;49.564;17.412;2024-02-26T00:21:16;97006.00;;;6.57;100.00
73429;BME280;61643;49.564;17.412;2024-02-26T00:23:42;97011.91;;;6.64;100.00
73429;BME280;61643;49.564;17.412;2024-02-26T00:26:08;97015.91;;;6.67;100.00
73429;BME280;61643;49.564;17.412;2024-02-26T00:28:34;97003.06;;;6.64;100.00
73429;BME280;61643;49.564;17.412;2024-02-26T00:31:00;96994.53;;;6.62;100.00
73429;BME280;61643;49.564;17.412;2024-02-26T00:33:26;97005.47;;;6.60;100.00
73429;BME280;61643;49.564;17.412;2024-02-26T00:35:52;97004.66;;;6.55;100.00
73429;BME280;61643;49.564;17.412;2024-02-26T00:38:18;96998.47;;;6.49;100.00
73429;BME280;61643;49.564;17.412;2024-02-26T00:40:44;96996.31;;;6.46;100.00
73429;BME280;61643;49.564;17.412;2024-02-26T00:43:10;96991.75;;;6.41;100.00
73429;BME280;61643;49.564;17.412;2024-02-26T00:45:36;96993.06;;;6.39;100.00
73429;BME280;61643;49.564;17.412;2024-02-26T00:48:02;96997.84;;;6.37;100.00
73429;BME280;61643;49.564;17.412;2024-02-26T00:50:31;96993.06;;;6.39;100.00
73429;BME280;61643;49.564;17.412;2024-02-26T00:52:57;96995.22;;;6.42;100.00
73429;BME280;61643;49.564;17.412;2024-02-26T00:55:23;96992.53;;;6.42;100.00
73429;BME280;61643;49.564;17.412;2024-02-26T00:57:49;96997.94;;;6.52;100.00
73429;BME280;61643;49.564;17.412;2024-02-26T01:00:15;96991.78;;;6.52;100.00
73429;BME280;61643;49.564;17.412;2024-02-26T01:02:41;96987.50;;;6.46;100.00
73429;BME280;61643;49.564;17.412;2024-02-26T01:05:08;96987.25;;;6.47;100.00
73429;BME280;61643;49.564;17.412;2024-02-26T01:07:37;96990.47;;;6.54;100.00
73429;BME280;61643;49.564;17.412;2024-02-26T01:10:03;96986.72;;;6.55;100.00
73429;BME280;61643;49.564;17.412;2024-02-26T01:12:29;96972.00;;;6.53;100.00
73429;BME280;61643;49.564;17.412;2024-02-26T01:14:55;96975.75;;;6.52;100.00
73429;BME280;61643;49.564;17.412;2024-02-26T01:17:21;96974.16;;;6.51;100.00
73429;BME280;61643;49.564;17.412;2024-02-26T01:19:47;96971.47;;;6.51;100.00
73429;BME280;61643;49.564;17.412;2024-02-26T01:22:13;96975.75;;;6.47;100.00
73429;BME280;61643;49.564;17.412;2024-02-26T01:24:39;96959.16;;;6.44;100.00
73429;BME280;61643;49.564;17.412;2024-02-26T01:27:05;96961.84;;;6.50;100.00
73429;BME280;61643;49.564;17.412;2024-02-26T01:29:33;96965.06;;;6.52;100.00
73429;BME280;61643;49.564;17.412;2024-02-26T01:31:59;96961.28;;;6.48;100.00
73429;BME280;61643;49.564;17.412;2024-02-26T01:34:25;96961.84;;;6.50;100.00
73429;BME280;61643;49.564;17.412;2024-02-26T01:36:51;96951.16;;;6.50;100.00
73429;BME280;61643;49.564;17.412;2024-02-26T01:39:17;96946.88;;;6.43;100.00
73429;BME280;61643;49.564;17.412;2024-02-26T01:41:43;96955.13;;;6.42;100.00
73429;BME280;61643;49.564;17.412;2024-02-26T01:44:12;96945.22;;;6.37;100.00
73429;BME280;61643;49.564;17.412;2024-02-26T01:46:39;96944.16;;;6.38;100.00
73429;BME280;61643;49.564;17.412;2024-02-26T01:49:06;96938.81;;;6.38;100.00
73429;BME280;61643;49.564;17.412;2024-02-26T01:51:33;96951.41;;;6.43;100.00
73429;BME280;61643;49.564;17.412;2024-02-26T01:54:01;96937.47;;;6.41;100.00
73429;BME280;61643;49.564;17.412;2024-02-26T01:56:28;96944.72;;;6.46;100.00
73429;BME280;61643;49.564;17.412;2024-02-26T01:58:56;96941.53;;;6.43;100.00
73429;BME280;61643;49.564;17.412;2024-02-26T02:01:25;96941.53;;;6.43;100.00
73429;BME280;61643;49.564;17.412;2024-02-26T02:03:51;96940.97;;;6.41;100.00
73429;BME280;61643;49.564;17.412;2024-02-26T02:06:18;96947.16;;;6.47;100.00
73429;BME280;61643;49.564;17.412;2024-02-26T02:08:44;96947.91;;;6.48;100.00
73429;BME280;61643;49.564;17.412;2024-02-26T02:11:10;96945.25;;;6.42;100.00
73429;BME280;61643;49.564;17.412;2024-02-26T02:13:37;96941.00;;;6.47;100.00
73429;BME280;61643;49.564;17.412;2024-02-26T02:16:04;96937.75;;;6.44;100.00
73429;BME280;61643;49.564;17.412;2024-02-26T02:18:30;96940.16;;;6.41;100.00
73429;BME280;61643;49.564;17.412;2024-02-26T02:20:56;96939.09;;;6.42;100.00
73429;BME280;61643;49.564;17.412;2024-02-26T02:23:25;96949.25;;;6.45;100.00
73429;BME280;61643;49.564;17.412;2024-02-26T02:25:51;96950.63;;;6.53;100.00
73429;BME280;61643;49.564;17.412;2024-02-26T02:28:18;96943.94;;;6.55;100.00
73429;BME280;61643;49.564;17.412;2024-02-26T02:30:45;96949.28;;;6.50;100.00
73429;BME280;61643;49.564;17.412;2024-02-26T02:33:11;96945.28;;;6.53;100.00
73429;BME280;61643;49.564;17.412;2024-02-26T02:35:38;96952.50;;;6.47;100.00
73429;BME280;61643;49.564;17.412;2024-02-26T02:38:04;96954.59;;;6.45;100.00
73429;BME280;61643;49.564;17.412;2024-02-26T02:40:30;96946.31;;;6.41;100.00
73429;BME280;61643;49.564;17.412;2024-02-26T02:42:56;96944.69;;;6.40;100.00
73429;BME280;61643;49.564;17.412;2024-02-26T02:45:24;96952.19;;;6.38;100.00
73429;BME280;61643;49.564;17.412;2024-02-26T02:47:50;96943.06;;;6.34;100.00
73429;BME280;61643;49.564;17.412;2024-02-26T02:50:16;96950.03;;;6.40;100.00
73429;BME280;61643;49.564;17.412;2024-02-26T02:52:42;96944.44;;;6.42;100.00
73429;BME280;61643;49.564;17.412;2024-02-26T02:55:08;96946.34;;;6.47;100.00
73429;BME280;61643;49.564;17.412;2024-02-26T02:57:34;96932.97;;;6.47;100.00
73429;BME280;61643;49.564;17.412;2024-02-26T03:00:00;96941.28;;;6.50;100.00
73429;BME280;61643;49.564;17.412;2024-02-26T03:02:26;96943.41;;;6.53;100.00
73429;BME280;61643;49.564;17.412;2024-02-26T03:04:52;96930.03;;;6.43;100.00
73429;BME280;61643;49.564;17.412;2024-02-26T03:07:18;96927.09;;;6.50;100.00
73429;BME280;61643;49.564;17.412;2024-02-26T03:09:44;96932.97;;;6.52;100.00
73429;BME280;61643;49.564;17.412;2024-02-26T03:12:10;96915.06;;;6.52;100.00
73429;BME280;61643;49.564;17.412;2024-02-26T03:14:36;96918.56;;;6.53;100.00
73429;BME280;61643;49.564;17.412;2024-02-26T03:17:02;96908.09;;;6.51;100.00
73429;BME280;61643;49.564;17.412;2024-02-26T03:19:28;96919.38;;;6.58;100.00
73429;BME280;61643;49.564;17.412;2024-02-26T03:21:53;96926.03;;;6.56;100.00
73429;BME280;61643;49.564;17.412;2024-02-26T03:24:19;96928.44;;;6.52;100.00
73429;BME280;61643;49.564;17.412;2024-02-26T03:26:45;96924.47;;;6.55;100.00
73429;BME280;61643;49.564;17.412;2024-02-26T03:29:11;96924.97;;;6.52;100.00
73429;BME280;61643;49.564;17.412;2024-02-26T03:31:37;96914.78;;;6.43;100.00
73429;BME280;61643;49.564;17.412;2024-02-26T03:34:04;96915.56;;;6.39;100.00
73429;BME280;61643;49.564;17.412;2024-02-26T03:36:30;96920.41;;;6.47;100.00
73429;BME280;61643;49.564;17.412;2024-02-26T03:38:56;96915.31;;;6.46;100.00
73429;BME280;61643;49.564;17.412;2024-02-26T03:41:22;96920.66;;;6.46;100.00
73429;BME280;61643;49.564;17.412;2024-02-26T03:43:48;96916.66;;;6.43;100.00
73429;BME280;61643;49.564;17.412;2024-02-26T03:46:14;96915.34;;;6.51;100.00
73429;BME280;61643;49.564;17.412;2024-02-26T03:48:41;96903.81;;;6.45;100.00
73429;BME280;61643;49.564;17.412;2024-02-26T03:51:08;96905.44;;;6.51;100.00
73429;BME280;61643;49.564;17.412;2024-02-26T03:53:35;96908.66;;;6.53;100.00
73429;BME280;61643;49.564;17.412;2024-02-26T03:56:05;96915.34;;;6.51;100.00
73429;BME280;61643;49.564;17.412;2024-02-26T03:58:32;96912.41;;;6.52;100.00
73429;BME280;61643;49.564;17.412;2024-02-26T04:00:59;96902.50;;;6.48;100.00
73429;BME280;61643;49.564;17.412;2024-02-26T04:03:25;96911.03;;;6.44;100.00
73429;BME280;61643;49.564;17.412;2024-02-26T04:05:51;96898.72;;;6.38;100.00
73429;BME280;61643;49.564;17.412;2024-02-26T04:08:17;96905.16;;;6.42;100.00
73429;BME280;61643;49.564;17.412;2024-02-26T04:10:43;96904.09;;;6.43;100.00
73429;BME280;61643;49.564;17.412;2024-02-26T04:13:09;96913.47;;;6.46;100.00
73429;BME280;61643;49.564;17.412;2024-02-26T04:15:35;96914.22;;;6.41;100.00
73429;BME280;61643;49.564;17.412;2024-02-26T04:18:01;96907.28;;;6.35;100.00
73429;BME280;61643;49.564;17.412;2024-02-26T04:20:28;96916.91;;;6.36;100.00
73429;BME280;61643;49.564;17.412;2024-02-26T04:22:54;96913.72;;;6.39;100.00
73429;BME280;61643;49.564;17.412;2024-02-26T04:25:20;96914.75;;;6.38;100.00
73429;BME280;61643;49.564;17.412;2024-02-26T04:27:46;96919.06;;;6.44;100.00
73429;BME280;61643;49.564;17.412;2024-02-26T04:30:12;96909.94;;;6.40;100.00
73429;BME280;61643;49.564;17.412;2024-02-26T04:32:38;96917.97;;;6.40;100.00
73429;BME280;61643;49.564;17.412;2024-02-26T04:35:04;96904.31;;;6.37;100.00
73429;BME280;61643;49.564;17.412;2024-02-26T04:37:30;96920.09;;;6.38;100.00
73429;BME280;61643;49.564;17.412;2024-02-26T04:40:00;96914.22;;;6.36;100.00
73429;BME280;61643;49.564;17.412;2024-02-26T04:42:27;96910.19;;;6.29;100.00
73429;BME280;61643;49.564;17.412;2024-02-26T04:44:54;96905.41;;;6.36;100.00
73429;BME280;61643;49.564;17.412;2024-02-26T04:47:20;96900.59;;;6.38;100.00
73429;BME280;61643;49.564;17.412;2024-02-26T04:49:49;96897.13;;;6.37;100.00
73429;BME280;61643;49.564;17.412;2024-02-26T04:52:15;96899.25;;;6.40;100.00
73429;BME280;61643;49.564;17.412;2024-02-26T04:54:41;96898.19;;;6.36;100.00
73429;BME280;61643;49.564;17.412;2024-02-26T04:57:07;96893.63;;;6.37;100.00
73429;BME280;61643;49.564;17.412;2024-02-26T04:59:33;96903.03;;;6.39;100.00
73429;BME280;61643;49.564;17.412;2024-02-26T05:01:59;96906.50;;;6.40;100.00
73429;BME280;61643;49.564;17.412;2024-02-26T05:04:25;96901.41;;;6.38;100.00
73429;BME280;61643;49.564;17.412;2024-02-26T05:06:51;96893.91;;;6.40;100.00
73429;BME280;61643;49.564;17.412;2024-02-26T05:09:17;96904.09;;;6.49;100.00
73429;BME280;61643;49.564;17.412;2024-02-26T05:11:43;96895.00;;;6.39;100.00
73429;BME280;61643;49.564;17.412;2024-02-26T05:14:10;96904.63;;;6.46;100.00
73429;BME280;61643;49.564;17.412;2024-02-26T05:16:36;96905.97;;;6.43;100.00
73429;BME280;61643;49.564;17.412;2024-02-26T05:19:02;96902.50;;;6.42;100.00
73429;BME280;61643;49.564;17.412;2024-02-26T05:21:29;96904.59;;;6.40;100.00
73429;BME280;61643;49.564;17.412;2024-02-26T05:23:55;96912.13;;;6.49;100.00
73429;BME280;61643;49.564;17.412;2024-02-26T05:26:21;96895.00;;;6.44;100.00
73429;BME280;61643;49.564;17.412;2024-02-26T05:28:48;96893.41;;;6.49;100.00
73429;BME280;61643;49.564;17.412;2024-02-26T05:31:14;96899.59;;;6.59;100.00
73429;BME280;61643;49.564;17.412;2024-02-26T05:33:40;96893.97;;;6.56;100.00
73429;BME280;61643;49.564;17.412;2024-02-26T05:36:06;96903.56;;;6.52;100.00
73429;BME280;61643;49.564;17.412;2024-02-26T05:38:35;96896.63;;;6.46;100.00
73429;BME280;61643;49.564;17.412;2024-02-26T05:41:01;96895.56;;;6.47;100.00
73429;BME280;61643;49.564;17.412;2024-02-26T05:43:27;96905.22;;;6.58;100.00
73429;BME280;61643;49.564;17.412;2024-02-26T05:45:54;96899.53;;;6.44;100.00
73429;BME280;61643;49.564;17.412;2024-02-26T05:48:20;96901.44;;;6.43;100.00
73429;BME280;61643;49.564;17.412;2024-02-26T05:50:46;96907.06;;;6.52;100.00
73429;BME280;61643;49.564;17.412;2024-02-26T05:53:12;96915.06;;;6.47;100.00
73429;BME280;61643;49.564;17.412;2024-02-26T05:55:38;96922.28;;;6.47;100.00
73429;BME280;61643;49.564;17.412;2024-02-26T05:58:05;96921.47;;;6.46;100.00
73429;BME280;61643;49.564;17.412;2024-02-26T06:00:31;96919.63;;;6.52;100.00
73429;BME280;61643;49.564;17.412;2024-02-26T06:02:57;96924.69;;;6.48;100.00
73429;BME280;61643;49.564;17.412;2024-02-26T06:05:23;96930.03;;;6.43;100.00
73429;BME280;61643;49.564;17.412;2024-02-26T06:07:49;96929.75;;;6.39;100.00
73429;BME280;61643;49.564;17.412;2024-02-26T06:10:15;96945.78;;;6.44;100.00
73429;BME280;61643;49.564;17.412;2024-02-26T06:12:41;96942.81;;;6.41;100.00
73429;BME280;61643;49.564;17.412;2024-02-26T06:15:07;96942.34;;;6.49;100.00
73429;BME280;61643;49.564;17.412;2024-02-26T06:17:33;96938.31;;;6.52;100.00
73429;BME280;61643;49.564;17.412;2024-02-26T06:20:00;96941.03;;;6.57;100.00
73429;BME280;61643;49.564;17.412;2024-02-26T06:22:26;96924.16;;;6.51;100.00
73429;BME280;61643;49.564;17.412;2024-02-26T06:24:52;96937.81;;;6.60;100.00
73429;BME280;61643;49.564;17.412;2024-02-26T06:27:18;96938.09;;;6.58;100.00
73429;BME280;61643;49.564;17.412;2024-02-26T06:29:44;96939.69;;;6.59;100.00
73429;BME280;61643;49.564;17.412;2024-02-26T06:32:10;96943.72;;;6.67;100.00
73429;BME280;61643;49.564;17.412;2024-02-26T06:34:36;96950.13;;;6.66;100.00
73429;BME280;61643;49.564;17.412;2024-02-26T06:37:04;96945.06;;;6.64;100.00
73429;BME280;61643;49.564;17.412;2024-02-26T06:39:30;96948.00;;;6.68;100.00
73429;BME280;61643;49.564;17.412;2024-02-26T06:41:56;96946.69;;;6.70;100.00
73429;BME280;61643;49.564;17.412;2024-02-26T06:44:27;96945.34;;;6.68;100.00
73429;BME280;61643;49.564;17.412;2024-02-26T06:47:01;96953.09;;;6.69;100.00
73429;BME280;61643;49.564;17.412;2024-02-26T06:49:27;96950.94;;;6.66;100.00
73429;BME280;61643;49.564;17.412;2024-02-26T06:51:53;96951.81;;;6.82;100.00
73429;BME280;61643;49.564;17.412;2024-02-26T06:54:19;96948.63;;;6.90;100.00
73429;BME280;61643;49.564;17.412;2024-02-26T06:56:46;96948.09;;;7.03;100.00
73429;BME280;61643;49.564;17.412;2024-02-26T06:59:12;96957.22;;;7.12;100.00
73429;BME280;61643;49.564;17.412;2024-02-26T07:01:41;96953.22;;;7.20;100.00
73429;BME280;61643;49.564;17.412;2024-02-26T07:04:07;96952.41;;;7.24;100.00
73429;BME280;61643;49.564;17.412;2024-02-26T07:06:33;96951.34;;;7.35;100.00
73429;BME280;61643;49.564;17.412;2024-02-26T07:08:59;96973.31;;;7.42;100.00
73429;BME280;61643;49.564;17.412;2024-02-26T07:11:25;96963.94;;;7.50;100.00
73429;BME280;61643;49.564;17.412;2024-02-26T07:13:51;96954.31;;;7.54;100.00
73429;BME280;61643;49.564;17.412;2024-02-26T07:16:17;96950.56;;;7.55;100.00
73429;BME280;61643;49.564;17.412;2024-02-26T07:18:42;96958.59;;;7.65;100.00
73429;BME280;61643;49.564;17.412;2024-02-26T07:21:11;96960.44;;;7.60;100.00
73429;BME280;61643;49.564;17.412;2024-02-26T07:23:38;96956.19;;;7.54;100.00
73429;BME280;61643;49.564;17.412;2024-02-26T07:26:03;96959.16;;;7.52;100.00
73429;BME280;61643;49.564;17.412;2024-02-26T07:28:29;96959.38;;;7.46;100.00
73429;BME280;61643;49.564;17.412;2024-02-26T07:30:56;96961.53;;;7.43;100.00
73429;BME280;61643;49.564;17.412;2024-02-26T07:33:21;96973.31;;;7.42;100.00
73429;BME280;61643;49.564;17.412;2024-02-26T07:35:48;96956.44;;;7.42;100.00
73429;BME280;61643;49.564;17.412;2024-02-26T07:38:13;96961.00;;;7.47;100.00
73429;BME280;61643;49.564;17.412;2024-02-26T07:40:40;96955.09;;;7.50;100.00
73429;BME280;61643;49.564;17.412;2024-02-26T07:43:05;96959.41;;;7.40;100.00
73429;BME280;61643;49.564;17.412;2024-02-26T07:45:31;96951.09;;;7.47;100.00
73429;BME280;61643;49.564;17.412;2024-02-26T07:47:57;96959.66;;;7.49;100.00
73429;BME280;61643;49.564;17.412;2024-02-26T07:50:23;96966.34;;;7.57;100.00
73429;BME280;61643;49.564;17.412;2024-02-26T07:52:49;96959.91;;;7.53;100.00
73429;BME280;61643;49.564;17.412;2024-02-26T07:55:16;96952.97;;;7.67;100.00
73429;BME280;61643;49.564;17.412;2024-02-26T07:57:43;96955.38;;;7.78;100.00
73429;BME280;61643;49.564;17.412;2024-02-26T08:00:10;96950.56;;;7.80;100.00
73429;BME280;61643;49.564;17.412;2024-02-26T08:02:36;96947.84;;;7.90;100.00
73429;BME280;61643;49.564;17.412;2024-02-26T08:05:02;96940.34;;;8.03;100.00
73429;BME280;61643;49.564;17.412;2024-02-26T08:07:28;96937.94;;;8.06;100.00
73429;BME280;61643;49.564;17.412;2024-02-26T08:09:54;96936.28;;;8.15;100.00
73429;BME280;61643;49.564;17.412;2024-02-26T08:12:20;96948.59;;;8.26;100.00
73429;BME280;61643;49.564;17.412;2024-02-26T08:14:46;96943.22;;;8.36;100.00
73429;BME280;61643;49.564;17.412;2024-02-26T08:17:12;96947.47;;;8.48;100.00
73429;BME280;61643;49.564;17.412;2024-02-26T08:19:38;96956.53;;;8.62;100.00
73429;BME280;61643;49.564;17.412;2024-02-26T08:22:04;96953.03;;;8.66;100.00
73429;BME280;61643;49.564;17.412;2024-02-26T08:24:30;96952.72;;;8.73;100.00
73429;BME280;61643;49.564;17.412;2024-02-26T08:26:56;96952.16;;;8.76;100.00
73429;BME280;61643;49.564;17.412;2024-02-26T08:29:22;96943.03;;;8.82;100.00
73429;BME280;61643;49.564;17.412;2024-02-26T08:31:48;96948.91;;;8.89;100.00
73429;BME280;61643;49.564;17.412;2024-02-26T08:34:14;96952.88;;;8.97;100.00
73429;BME280;61643;49.564;17.412;2024-02-26T08:36:40;96950.97;;;9.02;100.00
73429;BME280;61643;49.564;17.412;2024-02-26T08:39:08;96949.84;;;9.08;100.00
73429;BME280;61643;49.564;17.412;2024-02-26T08:41:35;96950.66;;;9.09;100.00
73429;BME280;61643;49.564;17.412;2024-02-26T08:44:01;96959.50;;;9.14;100.00
73429;BME280;61643;49.564;17.412;2024-02-26T08:46:27;96944.44;;;9.18;100.00
73429;BME280;61643;49.564;17.412;2024-02-26T08:48:53;96943.88;;;9.21;100.00
73429;BME280;61643;49.564;17.412;2024-02-26T08:51:19;96940.38;;;9.26;100.00
73429;BME280;61643;49.564;17.412;2024-02-26T08:53:45;96940.91;;;9.23;100.00
73429;BME280;61643;49.564;17.412;2024-02-26T08:56:11;96934.69;;;9.27;100.00
73429;BME280;61643;49.564;17.412;2024-02-26T08:58:43;96955.28;;;9.42;100.00
73429;BME280;61643;49.564;17.412;2024-02-26T09:01:09;96957.13;;;9.47;100.00
73429;BME280;61643;49.564;17.412;2024-02-26T09:03:35;96964.84;;;9.58;100.00
73429;BME280;61643;49.564;17.412;2024-02-26T09:06:01;96954.31;;;9.62;100.00
73429;BME280;61643;49.564;17.412;2024-02-26T09:08:27;96957.75;;;9.67;100.00
73429;BME280;61643;49.564;17.412;2024-02-26T09:10:53;96948.31;;;9.70;100.00
73429;BME280;61643;49.564;17.412;2024-02-26T09:13:19;96946.50;;;9.65;100.00
73429;BME280;61643;49.564;17.412;2024-02-26T09:15:45;96954.00;;;9.68;100.00
73429;BME280;61643;49.564;17.412;2024-02-26T09:18:11;96958.25;;;9.74;100.00
73429;BME280;61643;49.564;17.412;2024-02-26T09:20:37;96963.09;;;9.72;100.00
73429;BME280;61643;49.564;17.412;2024-02-26T09:23:04;96948.81;;;9.77;100.00
73429;BME280;61643;49.564;17.412;2024-02-26T09:25:30;96948.25;;;9.80;100.00
73429;BME280;61643;49.564;17.412;2024-02-26T09:27:56;96965.59;;;9.93;100.00
73429;BME280;61643;49.564;17.412;2024-02-26T09:30:22;96955.75;;;9.83;100.00
73429;BME280;61643;49.564;17.412;2024-02-26T09:32:48;96966.91;;;9.95;100.00
73429;BME280;61643;49.564;17.412;2024-02-26T09:35:14;96962.56;;;9.99;100.00
73429;BME280;61643;49.564;17.412;2024-02-26T09:37:40;96950.84;;;9.90;100.00
73429;BME280;61643;49.564;17.412;2024-02-26T09:40:06;96963.97;;;9.97;100.00
73429;BME280;61643;49.564;17.412;2024-02-26T09:42:34;96976.19;;;10.13;100.00
73429;BME280;61643;49.564;17.412;2024-02-26T09:45:05;96971.81;;;10.22;100.00
73429;BME280;61643;49.564;17.412;2024-02-26T09:47:36;96971.44;;;10.33;100.00
73429;BME280;61643;49.564;17.412;2024-02-26T09:50:02;96982.69;;;10.35;100.00
73429;BME280;61643;49.564;17.412;2024-02-26T09:52:30;96968.78;;;10.28;100.00
73429;BME280;61643;49.564;17.412;2024-02-26T09:54:59;96959.41;;;10.26;100.00
73429;BME280;61643;49.564;17.412;2024-02-26T09:57:25;96981.88;;;10.35;100.00
73429;BME280;61643;49.564;17.412;2024-02-26T09:59:53;96986.72;;;10.38;100.00
73429;BME280;61643;49.564;17.412;2024-02-26T10:02:25;96976.81;;;10.33;100.00
73429;BME280;61643;49.564;17.412;2024-02-26T10:04:51;96963.06;;;10.35;100.00
73429;BME280;61643;49.564;17.412;2024-02-26T10:07:19;96978.31;;;10.45;100.00
73429;BME280;61643;49.564;17.412;2024-02-26T10:09:46;96963.28;;;10.38;100.00
73429;BME280;61643;49.564;17.412;2024-02-26T10:12:12;96969.88;;;10.51;100.00
73429;BME280;61643;49.564;17.412;2024-02-26T10:14:38;96972.81;;;10.55;100.00
73429;BME280;61643;49.564;17.412;2024-02-26T10:17:07;96974.09;;;10.57;100.00
73429;BME280;61643;49.564;17.412;2024-02-26T10:19:34;96964.38;;;10.61;100.00
73429;BME280;61643;49.564;17.412;2024-02-26T10:22:01;96962.22;;;10.63;100.00
73429;BME280;61643;49.564;17.412;2024-02-26T10:24:28;96972.56;;;10.75;100.00
73429;BME280;61643;49.564;17.412;2024-02-26T10:26:55;96963.63;;;10.79;100.00
73429;BME280;61643;49.564;17.412;2024-02-26T10:29:23;96962.38;;;10.72;100.00
73429;BME280;61643;49.564;17.412;2024-02-26T10:31:50;96954.16;;;10.82;100.00
73429;BME280;61643;49.564;17.412;2024-02-26T10:34:17;96966.75;;;10.86;100.00
73429;BME280;61643;49.564;17.412;2024-02-26T10:36:43;96941.06;;;10.75;100.00
73429;BME280;61643;49.564;17.412;2024-02-26T10:39:12;96964.16;;;10.81;100.00
73429;BME280;61643;49.564;17.412;2024-02-26T10:41:43;96962.19;;;10.87;100.00
73429;BME280;61643;49.564;17.412;2024-02-26T10:44:09;96969.09;;;10.93;100.00
73429;BME280;61643;49.564;17.412;2024-02-26T10:46:42;96950.91;;;10.85;100.00
73429;BME280;61643;49.564;17.412;2024-02-26T10:49:15;96971.50;;;10.95;100.00
73429;BME280;61643;49.564;17.412;2024-02-26T10:51:54;96965.59;;;10.93;100.00
73429;BME280;61643;49.564;17.412;2024-02-26T10:54:24;96940.44;;;10.83;100.00
73429;BME280;61643;49.564;17.412;2024-02-26T10:56:51;96969.47;;;11.05;100.00
73429;BME280;61643;49.564;17.412;2024-02-26T10:59:18;96972.41;;;11.09;100.00
73429;BME280;61643;49.564;17.412;2024-02-26T11:01:48;96963.22;;;11.10;100.00
73429;BME280;61643;49.564;17.412;2024-02-26T11:04:16;96971.81;;;11.12;100.00
73429;BME280;61643;49.564;17.412;2024-02-26T11:06:43;96965.47;;;11.21;100.00
73429;BME280;61643;49.564;17.412;2024-02-26T11:09:14;96961.63;;;11.27;100.00
73429;BME280;61643;49.564;17.412;2024-02-26T11:11:41;96956.31;;;11.22;100.00
73429;BME280;61643;49.564;17.412;2024-02-26T11:14:08;96961.75;;;11.36;100.00
73429;BME280;61643;49.564;17.412;2024-02-26T11:16:35;96969.84;;;11.36;100.00
73429;BME280;61643;49.564;17.412;2024-02-26T11:19:02;96953.69;;;11.36;100.00
73429;BME280;61643;49.564;17.412;2024-02-26T11:21:29;96968.09;;;11.45;100.00
73429;BME280;61643;49.564;17.412;2024-02-26T11:24:07;96965.25;;;11.55;100.00
73429;BME280;61643;49.564;17.412;2024-02-26T11:26:38;96956.56;;;11.58;100.00
73429;BME280;61643;49.564;17.412;2024-02-26T11:29:08;96952.72;;;11.64;100.00
73429;BME280;61643;49.564;17.412;2024-02-26T11:31:38;96942.16;;;11.68;100.00
73429;BME280;61643;49.564;17.412;2024-02-26T11:34:04;96955.69;;;11.63;100.00
73429;BME280;61643;49.564;17.412;2024-02-26T11:36:30;96951.34;;;11.67;100.00
73429;BME280;61643;49.564;17.412;2024-02-26T11:38:56;96951.72;;;11.60;100.00
73429;BME280;61643;49.564;17.412;2024-02-26T11:41:22;96953.66;;;11.55;100.00
73429;BME280;61643;49.564;17.412;2024-02-26T11:43:59;96964.44;;;11.55;99.72
73429;BME280;61643;49.564;17.412;2024-02-26T11:46:30;96963.78;;;11.63;100.00
73429;BME280;61643;49.564;17.412;2024-02-26T11:48:59;96967.50;;;11.67;100.00
73429;BME280;61643;49.564;17.412;2024-02-26T11:51:33;96968.56;;;11.71;97.84
73429;BME280;61643;49.564;17.412;2024-02-26T11:54:00;96956.94;;;11.70;100.00
73429;BME280;61643;49.564;17.412;2024-02-26T11:56:26;96955.78;;;11.76;100.00
73429;BME280;61643;49.564;17.412;2024-02-26T12:01:44;96953.25;;;11.99;99.48
73429;BME280;61643;49.564;17.412;2024-02-26T12:04:22;96954.81;;;11.86;97.29
73429;BME280;61643;49.564;17.412;2024-02-26T12:09:40;96950.00;;;11.83;98.56
73429;BME280;61643;49.564;17.412;2024-02-26T12:12:08;96950.38;;;11.76;99.04
73429;BME280;61643;49.564;17.412;2024-02-26T12:14:38;96957.38;;;11.77;100.00
73429;BME280;61643;49.564;17.412;2024-02-26T12:17:04;96946.31;;;11.79;100.00
73429;BME280;61643;49.564;17.412;2024-02-26T12:19:35;96943.75;;;11.69;99.08
73429;BME280;61643;49.564;17.412;2024-02-26T12:22:06;96954.53;;;11.69;99.62
73429;BME280;61643;49.564;17.412;2024-02-26T12:24:32;96944.34;;;11.66;98.12
73429;BME280;61643;49.564;17.412;2024-02-26T12:26:58;96954.25;;;11.70;100.00
73429;BME280;61643;49.564;17.412;2024-02-26T12:29:24;96933.06;;;11.64;100.00
73429;BME280;61643;49.564;17.412;2024-02-26T12:31:50;96943.22;;;11.72;97.78
73429;BME280;61643;49.564;17.412;2024-02-26T12:34:17;96940.81;;;11.84;97.84
73429;BME280;61643;49.564;17.412;2024-02-26T12:36:43;96939.63;;;11.90;96.33
73429;BME280;61643;49.564;17.412;2024-02-26T12:39:09;96929.88;;;11.94;98.11
73429;BME280;61643;49.564;17.412;2024-02-26T12:41:35;96944.75;;;11.92;98.14
73429;BME280;61643;49.564;17.412;2024-02-26T12:44:02;96940.75;;;11.89;98.24
73429;BME280;61643;49.564;17.412;2024-02-26T12:46:27;96936.25;;;11.84;94.74
73429;BME280;61643;49.564;17.412;2024-02-26T12:48:58;96939.44;;;11.87;94.58
73429;BME280;61643;49.564;17.412;2024-02-26T12:51:26;96921.53;;;11.77;96.25